Corinth, Louisiana
Current Conditions -  °F | °C
As of 12:55 AM on Sunday 26 Oct 2014 (Local Time) from KRSN Reporting Station
Clear Clear  
Wind Chill: 65°   Ceiling: Unl
Heat Index: 65°   Visibility: 10mi
Dew Point: 59°   Wind: 5mph
Humidity: 81%   Direction: 220°SW
Pressure: 30.09"   Gusts: NA
Location:  32.6988°N, 92.6981°W
Report Text: KRSN 260555Z AUTO 22004KT 10SM CLR 19/15 A3009 RMK AO2 T01860152 10196 20170 402760092
Loading
Personal Weather Stations






























Interactive Weather Map
Tropical Storm Tracking
New forecast layout! Learn more

10-Day Weather Forecast

Advertisements
Track Severe Weather on mobile